Time;durP1;ratioP1;P1;durP2;ratioP2;P2;SDS_P1;SDS_P2;PMS_P1;PMS_P2;Temp;Humidity;BMP_temperature;BMP_pressure;BME280_temperature;BME280_humidity;BME280_pressure;Samples;Min_cycle;Max_cycle;Signal;HPM_P1;HPM_P2
2021/08/29 00:01:50;;;;;;;13.00;5.60;;;15.40;99.90;;;;;;5034306;28;20033;-58
2021/08/29 00:04:15;;;;;;;12.68;5.82;;;15.40;99.90;;;;;;5034350;28;20020;-58
2021/08/29 00:06:41;;;;;;;15.18;5.60;;;15.30;99.90;;;;;;5034188;28;20026;-58
2021/08/29 00:09:06;;;;;;;14.02;5.35;;;15.30;99.90;;;;;;5034282;28;20101;-58
2021/08/29 00:11:33;;;;;;;15.73;5.80;;;15.30;99.90;;;;;;5034112;28;20048;-59
2021/08/29 00:13:59;;;;;;;15.70;5.70;;;15.30;99.90;;;;;;5034278;28;20458;-58
2021/08/29 00:16:24;;;;;;;18.52;5.97;;;15.30;99.90;;;;;;5034115;28;20103;-58
2021/08/29 00:18:50;;;;;;;15.60;6.10;;;15.30;99.90;;;;;;5034330;28;20032;-58
2021/08/29 00:21:16;;;;;;;15.68;6.15;;;15.30;99.90;;;;;;5034172;28;20029;-58
2021/08/29 00:23:41;;;;;;;22.27;6.40;;;15.20;99.90;;;;;;5034064;28;20052;-58
2021/08/29 00:26:07;;;;;;;20.25;6.20;;;15.20;99.90;;;;;;5033924;28;20026;-58
2021/08/29 00:28:32;;;;;;;12.85;5.90;;;15.20;99.90;;;;;;5033870;28;20028;-58
2021/08/29 00:30:58;;;;;;;14.57;5.68;;;15.10;99.90;;;;;;5033754;28;20329;-58
2021/08/29 00:33:24;;;;;;;15.38;6.32;;;15.10;99.90;;;;;;5033852;28;20026;-58
2021/08/29 00:35:49;;;;;;;15.30;6.70;;;15.10;99.90;;;;;;5033684;28;20051;-58
2021/08/29 00:38:15;;;;;;;16.52;6.10;;;15.10;99.90;;;;;;5033727;28;20060;-58
2021/08/29 00:40:40;;;;;;;18.00;6.30;;;15.00;99.90;;;;;;5033729;28;20385;-57
2021/08/29 00:43:06;;;;;;;17.63;5.90;;;15.00;99.90;;;;;;5033666;28;20017;-58
2021/08/29 00:45:34;;;;;;;18.60;6.80;;;15.00;99.90;;;;;;5032212;28;20112;-58
2021/08/29 00:48:00;;;;;;;15.52;6.28;;;15.00;99.90;;;;;;5033579;28;20033;-58
2021/08/29 00:50:27;;;;;;;13.57;6.32;;;15.00;99.90;;;;;;5032209;28;20030;-58
2021/08/29 00:52:53;;;;;;;15.25;5.85;;;15.00;99.90;;;;;;5032122;28;20025;-58
2021/08/29 00:55:19;;;;;;;17.13;6.32;;;15.00;99.90;;;;;;5048920;28;20029;-58
2021/08/29 00:57:45;;;;;;;17.35;6.47;;;15.00;99.90;;;;;;5033384;28;20029;-58
2021/08/29 01:00:12;;;;;;;13.57;6.60;;;15.00;99.90;;;;;;5032931;28;20033;-58
2021/08/29 01:02:39;;;;;;;17.08;6.30;;;14.90;99.90;;;;;;5033307;28;20021;-58
2021/08/29 01:05:13;;;;;;;12.07;6.05;;;14.90;99.90;;;;;;5033182;28;20021;-58
2021/08/29 01:08:02;;;;;;;13.77;6.10;;;14.90;99.90;;;;;;5033301;28;20032;-58
2021/08/29 01:10:41;;;;;;;20.92;7.28;;;15.00;99.90;;;;;;5033212;28;20075;-58
2021/08/29 01:13:10;;;;;;;18.55;6.05;;;15.00;99.90;;;;;;5033115;28;20040;-58
2021/08/29 01:15:37;;;;;;;11.57;5.47;;;15.00;99.90;;;;;;5032967;28;20513;-58
2021/08/29 01:18:05;;;;;;;19.48;5.97;;;15.10;99.90;;;;;;5033013;28;20029;-58
2021/08/29 01:21:07;;;;;;;14.13;6.00;;;15.10;99.90;;;;;;5033286;28;20475;-58
2021/08/29 01:23:38;;;;;;;16.73;6.30;;;15.10;99.90;;;;;;5032781;28;20025;-58
2021/08/29 01:26:31;;;;;;;12.27;5.70;;;15.20;99.90;;;;;;5032877;28;20021;-58
2021/08/29 01:29:00;;;;;;;9.23;5.32;;;15.20;99.90;;;;;;5040488;28;20125;-58
2021/08/29 01:31:28;;;;;;;13.98;5.38;;;15.20;99.90;;;;;;5032493;28;20376;-58
2021/08/29 01:33:57;;;;;;;15.98;5.50;;;15.30;99.90;;;;;;5032618;28;20037;-58
2021/08/29 01:36:24;;;;;;;11.00;5.18;;;15.30;99.90;;;;;;5031047;28;20502;-58
2021/08/29 01:38:50;;;;;;;14.85;4.53;;;15.30;99.90;;;;;;5032634;28;20057;-58
2021/08/29 01:41:18;;;;;;;17.58;6.00;;;15.40;99.90;;;;;;5032329;28;20045;-58
2021/08/29 01:43:45;;;;;;;14.50;5.32;;;15.40;99.90;;;;;;5032527;28;20018;-58
2021/08/29 01:46:11;;;;;;;16.27;5.63;;;15.40;99.90;;;;;;5032569;28;20075;-58
2021/08/29 01:48:40;;;;;;;11.65;5.68;;;15.40;99.90;;;;;;5032266;28;20461;-58
2021/08/29 01:51:06;;;;;;;10.98;5.97;;;15.50;99.90;;;;;;5032347;28;20044;-58
2021/08/29 01:53:31;;;;;;;12.02;5.13;;;15.60;99.90;;;;;;5032389;28;20037;-58
2021/08/29 01:55:57;;;;;;;13.52;5.30;;;15.50;99.90;;;;;;5031197;28;20386;-58
2021/08/29 01:58:22;;;;;;;13.68;5.25;;;15.50;99.90;;;;;;5032287;28;20022;-57
2021/08/29 02:00:59;;;;;;;12.52;5.40;;;15.70;99.90;;;;;;5031774;28;20096;-58
2021/08/29 02:03:26;;;;;;;11.70;5.30;;;15.70;99.90;;;;;;5032160;28;20037;-58
2021/08/29 02:06:10;;;;;;;16.13;5.68;;;15.70;99.90;;;;;;5031987;28;20087;-58
2021/08/29 02:08:38;;;;;;;13.93;5.13;;;15.70;99.90;;;;;;5030813;28;20480;-58
2021/08/29 02:11:05;;;;;;;13.80;5.70;;;15.70;99.90;;;;;;5032022;28;20056;-58
2021/08/29 02:13:34;;;;;;;12.95;5.43;;;15.60;99.90;;;;;;5032105;28;20030;-58
2021/08/29 02:16:06;;;;;;;13.07;5.78;;;15.70;99.90;;;;;;5031889;28;20038;-58
2021/08/29 02:18:36;;;;;;;13.20;5.13;;;15.70;99.90;;;;;;5031851;28;20036;-58
2021/08/29 02:21:03;;;;;;;11.50;5.38;;;15.70;99.90;;;;;;5031968;28;20033;-58
2021/08/29 02:23:29;;;;;;;15.13;5.32;;;15.80;99.90;;;;;;5031814;28;20064;-58
2021/08/29 02:25:55;;;;;;;12.50;4.80;;;15.80;99.90;;;;;;5032063;28;20030;-58
2021/08/29 02:28:23;;;;;;;14.27;5.45;;;15.80;99.90;;;;;;5031915;28;20029;-58
2021/08/29 02:30:49;;;;;;;9.27;4.93;;;15.80;99.90;;;;;;5031808;28;20040;-58
2021/08/29 02:33:15;;;;;;;11.85;4.70;;;15.80;99.90;;;;;;5031909;28;20025;-58
2021/08/29 02:35:42;;;;;;;10.85;4.80;;;15.80;99.90;;;;;;5031780;28;20050;-58
2021/08/29 02:38:08;;;;;;;12.23;5.47;;;15.80;99.90;;;;;;5032237;28;20064;-58
2021/08/29 02:40:42;;;;;;;11.43;5.00;;;15.80;99.90;;;;;;5031691;28;20038;-58
2021/08/29 02:43:09;;;;;;;18.55;4.93;;;15.80;99.90;;;;;;5063160;28;20040;-58
2021/08/29 02:45:36;;;;;;;12.68;4.70;;;15.90;99.90;;;;;;5031887;28;20052;-58
2021/08/29 02:48:02;;;;;;;15.38;5.18;;;15.90;99.90;;;;;;5031589;28;20021;-58
2021/08/29 02:50:29;;;;;;;10.63;4.57;;;15.90;99.90;;;;;;5031689;28;20029;-58
2021/08/29 02:52:55;;;;;;;12.98;4.57;;;15.80;99.90;;;;;;5031696;28;20359;-58
2021/08/29 02:55:22;;;;;;;9.65;4.68;;;15.90;99.90;;;;;;5031492;28;20538;-58
2021/08/29 02:57:56;;;;;;;12.27;4.88;;;15.90;99.90;;;;;;5031652;28;20064;-59
2021/08/29 03:00:22;;;;;;;12.02;4.80;;;15.90;99.90;;;;;;5062037;28;20075;-58
2021/08/29 03:02:48;;;;;;;11.23;4.53;;;15.90;99.90;;;;;;5031385;28;20429;-59
2021/08/29 03:05:14;;;;;;;11.50;4.68;;;16.00;99.90;;;;;;5031488;28;20151;-58
2021/08/29 03:07:39;;;;;;;11.57;4.93;;;15.90;99.90;;;;;;5031402;28;20025;-58
2021/08/29 03:10:06;;;;;;;11.13;4.57;;;15.90;99.90;;;;;;5031520;28;20029;-58
2021/08/29 03:12:31;;;;;;;10.82;4.78;;;15.90;99.90;;;;;;5031819;28;20030;-58
2021/08/29 03:14:58;;;;;;;11.23;5.43;;;15.80;99.90;;;;;;5035377;28;20359;-58
2021/08/29 03:17:23;;;;;;;12.65;5.05;;;15.80;99.90;;;;;;5035147;28;20034;-58
2021/08/29 03:19:53;;;;;;;11.20;5.00;;;15.80;99.90;;;;;;5035127;28;20032;-58
2021/08/29 03:22:19;;;;;;;10.20;4.65;;;15.80;99.90;;;;;;5034974;28;20025;-58
2021/08/29 03:24:45;;;;;;;11.40;4.55;;;15.90;99.90;;;;;;5035145;28;20020;-57
2021/08/29 03:27:11;;;;;;;13.35;5.22;;;15.90;99.90;;;;;;5034985;28;20120;-58
2021/08/29 03:29:36;;;;;;;12.57;5.60;;;15.90;99.90;;;;;;5034953;28;20061;-58
2021/08/29 03:32:03;;;;;;;15.15;5.28;;;15.90;99.90;;;;;;5035030;28;20056;-58
2021/08/29 03:34:30;;;;;;;12.20;4.82;;;15.90;99.90;;;;;;5034899;28;20105;-58
2021/08/29 03:36:57;;;;;;;11.75;5.28;;;16.00;99.90;;;;;;5033596;28;20090;-58
2021/08/29 03:39:26;;;;;;;14.15;5.38;;;16.00;99.90;;;;;;5034742;28;20017;-59
2021/08/29 03:41:56;;;;;;;17.38;5.35;;;16.00;99.90;;;;;;5034716;28;20085;-58
2021/08/29 03:44:21;;;;;;;11.23;5.47;;;16.00;99.90;;;;;;5034775;28;20383;-58
2021/08/29 03:46:47;;;;;;;13.38;5.53;;;16.00;99.90;;;;;;5066751;28;20033;-58
2021/08/29 03:49:14;;;;;;;13.52;5.18;;;16.00;99.90;;;;;;5034994;28;20029;-58
2021/08/29 03:51:41;;;;;;;11.20;5.53;;;15.90;99.90;;;;;;5034633;28;20108;-58
2021/08/29 03:54:08;;;;;;;9.80;5.53;;;16.00;99.90;;;;;;5034745;28;20034;-58
2021/08/29 03:56:37;;;;;;;12.85;6.00;;;16.00;99.90;;;;;;5034427;28;20033;-58
2021/08/29 03:59:03;;;;;;;12.57;5.35;;;15.90;99.90;;;;;;5034522;28;20435;-58
2021/08/29 04:01:29;;;;;;;11.43;6.53;;;15.90;99.90;;;;;;5034481;28;20051;-58
2021/08/29 04:03:55;;;;;;;14.23;6.18;;;16.00;99.90;;;;;;5034471;28;20095;-58
2021/08/29 04:06:23;;;;;;;15.55;6.05;;;16.00;99.90;;;;;;5034259;28;20018;-58
2021/08/29 04:08:52;;;;;;;10.70;5.75;;;16.00;99.90;;;;;;5034357;28;20067;-58
2021/08/29 04:11:23;;;;;;;14.20;6.57;;;16.00;99.90;;;;;;5034240;28;20156;-58
2021/08/29 04:13:51;;;;;;;12.30;5.95;;;16.00;99.90;;;;;;5034472;28;20037;-59
2021/08/29 04:16:17;;;;;;;11.70;6.20;;;16.00;99.90;;;;;;5065797;28;20094;-58
2021/08/29 04:18:45;;;;;;;13.25;6.18;;;16.00;99.90;;;;;;5034197;28;20096;-58
2021/08/29 04:21:16;;;;;;;13.52;6.50;;;15.90;99.90;;;;;;5034057;28;20112;-58
2021/08/29 04:23:42;;;;;;;16.90;6.53;;;15.90;99.90;;;;;;5034202;28;20032;-58
2021/08/29 04:26:09;;;;;;;13.65;6.30;;;15.90;99.90;;;;;;5033937;28;20049;-58
2021/08/29 04:28:36;;;;;;;10.82;5.78;;;15.90;99.90;;;;;;5032624;28;20024;-58
2021/08/29 04:31:09;;;;;;;13.30;6.65;;;15.90;99.90;;;;;;5033798;28;20056;-58
2021/08/29 04:33:35;;;;;;;17.30;6.63;;;15.90;99.90;;;;;;5033974;28;20107;-58
2021/08/29 04:36:02;;;;;;;13.82;6.20;;;15.90;99.90;;;;;;5033761;28;20072;-58
2021/08/29 04:38:28;;;;;;;15.75;6.43;;;15.90;99.90;;;;;;5033720;28;20029;-58
2021/08/29 04:40:53;;;;;;;13.73;6.50;;;15.90;99.90;;;;;;5033645;28;20348;-58
2021/08/29 04:43:19;;;;;;;13.90;6.22;;;15.80;99.90;;;;;;5033495;28;20029;-57
2021/08/29 04:45:44;;;;;;;14.32;6.65;;;15.90;99.90;;;;;;5033714;28;20021;-58
2021/08/29 04:48:10;;;;;;;17.27;6.82;;;15.80;99.90;;;;;;5033712;28;20256;-58
2021/08/29 04:50:36;;;;;;;15.55;6.80;;;15.90;99.90;;;;;;5033494;28;20034;-58
2021/08/29 04:53:01;;;;;;;13.10;6.15;;;15.80;99.90;;;;;;5033425;28;20502;-58
2021/08/29 04:55:27;;;;;;;12.15;6.78;;;15.80;99.90;;;;;;5033450;28;20087;-58
2021/08/29 04:57:53;;;;;;;10.48;6.40;;;15.90;99.90;;;;;;5032058;28;20482;-58
2021/08/29 05:00:18;;;;;;;10.05;5.80;;;15.90;99.90;;;;;;5033424;28;20095;-58
2021/08/29 05:02:44;;;;;;;12.65;6.57;;;15.90;99.90;;;;;;5033142;28;20030;-58
2021/08/29 05:05:10;;;;;;;15.32;7.32;;;15.90;99.90;;;;;;5033263;28;20026;-58
2021/08/29 05:07:35;;;;;;;16.17;7.05;;;15.90;99.90;;;;;;5031936;28;20113;-58
2021/08/29 05:10:01;;;;;;;13.43;6.80;;;16.00;99.90;;;;;;5033226;28;20026;-58
2021/08/29 05:12:26;;;;;;;14.27;5.97;;;16.00;99.90;;;;;;5033321;28;20026;-58
2021/08/29 05:14:52;;;;;;;12.93;6.40;;;16.00;99.90;;;;;;5033132;28;20425;-58
2021/08/29 05:17:18;;;;;;;16.88;6.65;;;16.10;99.90;;;;;;5033001;28;20029;-58
2021/08/29 05:19:43;;;;;;;14.40;6.10;;;16.10;99.90;;;;;;5032941;28;20035;-58
2021/08/29 05:22:09;;;;;;;9.40;5.80;;;16.00;99.90;;;;;;5033232;28;20021;-58
2021/08/29 05:24:34;;;;;;;15.52;6.35;;;16.10;99.90;;;;;;5032907;28;20032;-58
2021/08/29 05:27:00;;;;;;;14.30;6.05;;;16.10;99.90;;;;;;5032861;28;20032;-58
2021/08/29 05:29:26;;;;;;;12.00;5.88;;;16.10;99.90;;;;;;5033174;28;20032;-58
2021/08/29 05:31:51;;;;;;;15.63;6.45;;;16.20;99.90;;;;;;5032827;28;20478;-58
2021/08/29 05:34:17;;;;;;;11.10;6.07;;;16.20;99.90;;;;;;5032677;28;20068;-58
2021/08/29 05:36:42;;;;;;;11.88;6.15;;;16.30;99.90;;;;;;5031964;28;20498;-58
2021/08/29 05:39:08;;;;;;;9.13;5.90;;;16.20;99.90;;;;;;5032746;28;20036;-58
2021/08/29 05:41:34;;;;;;;15.55;5.55;;;16.20;99.90;;;;;;5064271;28;20029;-58
2021/08/29 05:43:59;;;;;;;15.68;5.60;;;16.20;99.90;;;;;;5032550;28;20026;-58
2021/08/29 05:46:25;;;;;;;15.48;5.95;;;16.30;99.90;;;;;;5032434;28;20470;-58
2021/08/29 05:48:51;;;;;;;13.55;5.32;;;16.30;99.90;;;;;;5032366;28;20030;-58
2021/08/29 05:51:17;;;;;;;16.77;5.88;;;16.30;99.90;;;;;;5032468;28;20064;-58
2021/08/29 05:53:43;;;;;;;15.40;6.05;;;16.40;99.90;;;;;;5032777;28;20079;-58
2021/08/29 05:56:08;;;;;;;9.20;5.60;;;16.50;99.90;;;;;;5032626;28;20108;-58
2021/08/29 05:58:34;;;;;;;14.10;6.13;;;16.60;99.90;;;;;;5032385;28;20038;-59
2021/08/29 06:01:00;;;;;;;14.30;5.40;;;16.60;99.90;;;;;;5032272;28;20123;-58
2021/08/29 06:03:26;;;;;;;12.05;5.63;;;16.70;99.90;;;;;;5032123;28;20387;-58
2021/08/29 06:05:52;;;;;;;13.82;6.15;;;16.60;99.90;;;;;;5032208;28;20021;-58
2021/08/29 06:08:18;;;;;;;11.65;5.75;;;16.60;99.90;;;;;;5032161;28;20474;-58
2021/08/29 06:10:43;;;;;;;15.75;6.25;;;16.70;99.90;;;;;;5032270;28;20112;-58
2021/08/29 06:13:09;;;;;;;12.90;5.88;;;16.90;99.90;;;;;;5032309;28;20028;-58
2021/08/29 06:15:35;;;;;;;12.77;5.90;;;16.90;99.90;;;;;;5032199;28;20034;-58
2021/08/29 06:18:00;;;;;;;11.10;5.38;;;17.00;99.90;;;;;;5031935;28;20379;-58
2021/08/29 06:20:26;;;;;;;14.23;5.65;;;17.00;99.90;;;;;;5030676;28;20083;-58
2021/08/29 06:22:52;;;;;;;11.25;5.90;;;17.00;99.90;;;;;;5031990;28;20053;-58
2021/08/29 06:25:17;;;;;;;11.13;5.88;;;17.10;99.90;;;;;;5031979;28;20037;-59
2021/08/29 06:27:43;;;;;;;15.45;5.63;;;17.20;99.90;;;;;;5031895;28;20095;-59
2021/08/29 06:30:09;;;;;;;14.30;5.95;;;17.30;99.90;;;;;;5063941;28;20450;-59
2021/08/29 06:32:34;;;;;;;12.15;5.80;;;17.20;99.90;;;;;;5031735;28;20451;-59
2021/08/29 06:35:00;;;;;;;13.73;5.90;;;17.20;99.90;;;;;;5031697;28;20447;-59
2021/08/29 06:37:26;;;;;;;11.45;5.80;;;17.20;99.90;;;;;;5031543;28;20049;-58
2021/08/29 06:39:51;;;;;;;11.82;5.30;;;17.20;99.90;;;;;;5030404;28;20040;-58
2021/08/29 06:42:17;;;;;;;11.00;5.28;;;17.10;99.90;;;;;;5031581;28;20025;-58
2021/08/29 06:44:42;;;;;;;13.82;5.30;;;17.20;99.90;;;;;;5031630;28;20029;-58
2021/08/29 06:47:09;;;;;;;13.60;5.40;;;17.20;99.90;;;;;;5031697;28;20018;-58
2021/08/29 06:49:34;;;;;;;12.10;5.63;;;17.30;99.90;;;;;;5035547;28;20049;-58
2021/08/29 06:52:00;;;;;;;16.20;5.38;;;17.40;99.90;;;;;;5035805;28;20085;-59
2021/08/29 06:54:25;;;;;;;11.10;4.72;;;17.40;99.90;;;;;;5035638;28;20072;-58
2021/08/29 06:56:51;;;;;;;11.30;4.75;;;17.60;99.90;;;;;;5035469;28;20025;-58
2021/08/29 06:59:17;;;;;;;11.20;4.70;;;17.60;99.90;;;;;;5035390;28;20029;-58
2021/08/29 07:01:42;;;;;;;9.93;4.18;;;17.60;99.90;;;;;;5035363;28;20501;-58
2021/08/29 07:04:08;;;;;;;10.40;4.63;;;17.60;99.90;;;;;;5034035;28;20064;-58
2021/08/29 07:06:35;;;;;;;8.85;4.40;;;17.50;99.90;;;;;;5035356;28;20022;-58
2021/08/29 07:09:00;;;;;;;11.93;4.70;;;17.60;99.90;;;;;;5035336;28;20032;-58
2021/08/29 07:11:26;;;;;;;10.73;4.70;;;17.60;99.90;;;;;;5035470;28;20029;-58
2021/08/29 07:13:51;;;;;;;10.85;4.82;;;17.60;99.90;;;;;;5035281;28;20061;-58
2021/08/29 07:16:17;;;;;;;9.43;4.40;;;17.60;99.90;;;;;;5033728;28;20027;-58
2021/08/29 07:18:42;;;;;;;16.98;5.07;;;17.70;99.90;;;;;;5035104;28;20474;-58
2021/08/29 07:21:08;;;;;;;7.97;3.63;;;17.60;99.90;;;;;;5035094;28;20044;-58
2021/08/29 07:23:34;;;;;;;7.57;3.50;;;17.70;99.90;;;;;;5035165;28;20484;-58
2021/08/29 07:25:59;;;;;;;10.27;4.28;;;17.70;99.90;;;;;;5035109;28;20021;-58
2021/08/29 07:28:25;;;;;;;7.85;4.03;;;17.70;99.90;;;;;;5035296;28;20021;-58
2021/08/29 07:30:51;;;;;;;9.45;3.60;;;17.70;99.90;;;;;;5034895;28;20051;-58
2021/08/29 07:33:16;;;;;;;9.57;3.58;;;17.70;99.90;;;;;;5034893;28;20224;-58
2021/08/29 07:35:42;;;;;;;11.32;3.70;;;17.80;99.90;;;;;;5034659;28;20351;-58
2021/08/29 07:38:08;;;;;;;12.73;3.85;;;17.70;99.90;;;;;;5034908;28;20474;-58
2021/08/29 07:40:33;;;;;;;8.40;3.22;;;17.80;99.90;;;;;;5034663;28;20083;-58
2021/08/29 07:42:59;;;;;;;11.18;3.15;;;17.90;99.90;;;;;;5034725;28;20018;-59
2021/08/29 07:45:26;;;;;;;12.55;3.10;;;18.00;99.90;;;;;;5034752;28;20033;-58
2021/08/29 07:47:53;;;;;;;13.68;3.33;;;17.90;99.90;;;;;;5034514;28;20103;-58
2021/08/29 07:50:20;;;;;;;14.15;3.70;;;17.80;99.90;;;;;;5034657;28;20155;-58
2021/08/29 07:52:45;;;;;;;12.18;3.40;;;17.70;99.90;;;;;;5034450;28;20029;-58
2021/08/29 07:55:11;;;;;;;10.77;3.28;;;17.80;99.90;;;;;;5034571;28;20541;-59
2021/08/29 07:57:37;;;;;;;8.27;2.83;;;18.10;99.90;;;;;;5034448;28;20379;-58
2021/08/29 08:00:04;;;;;;;8.80;3.25;;;18.20;99.90;;;;;;5032511;28;20406;-59
2021/08/29 08:02:29;;;;;;;11.40;3.30;;;18.40;99.90;;;;;;5034322;28;20032;-58
2021/08/29 08:04:56;;;;;;;8.25;3.08;;;18.40;99.90;;;;;;5033139;28;20026;-58
2021/08/29 08:07:22;;;;;;;9.55;3.28;;;18.50;99.90;;;;;;5032830;28;20022;-58
2021/08/29 08:09:47;;;;;;;9.25;2.80;;;18.80;99.90;;;;;;5034445;28;20022;-58
2021/08/29 08:12:13;;;;;;;8.98;2.60;;;19.70;99.90;;;;;;5034251;28;20075;-58
2021/08/29 08:14:38;;;;;;;7.97;2.47;;;20.50;99.90;;;;;;5034209;28;20101;-59
2021/08/29 08:17:04;;;;;;;7.15;2.53;;;21.50;99.90;;;;;;5032906;28;20056;-59
2021/08/29 08:19:30;;;;;;;10.77;3.15;;;22.20;99.90;;;;;;5034184;28;20033;-60
2021/08/29 08:21:56;;;;;;;8.30;2.67;;;22.70;99.90;;;;;;5034133;28;20048;-59
2021/08/29 08:24:21;;;;;;;8.20;3.08;;;22.70;99.90;;;;;;5066289;28;20029;-59
2021/08/29 08:26:47;;;;;;;9.73;3.10;;;21.80;99.90;;;;;;5033904;28;20025;-59
2021/08/29 08:29:12;;;;;;;7.55;2.65;;;21.00;99.90;;;;;;5033962;28;20029;-59
2021/08/29 08:31:38;;;;;;;7.43;2.95;;;20.20;99.90;;;;;;5033751;28;20040;-58
2021/08/29 08:34:03;;;;;;;10.32;2.95;;;19.40;99.90;;;;;;5033981;28;20398;-59
2021/08/29 08:36:29;;;;;;;11.30;3.10;;;19.20;99.90;;;;;;5032523;28;20124;-59
2021/08/29 08:38:55;;;;;;;9.30;3.08;;;19.10;99.90;;;;;;5033798;28;20083;-59
2021/08/29 08:41:20;;;;;;;10.40;3.33;;;18.90;99.90;;;;;;5033804;28;20026;-58
2021/08/29 08:43:46;;;;;;;9.35;3.42;;;18.80;99.90;;;;;;5034048;28;20030;-59
2021/08/29 08:46:12;;;;;;;10.25;3.33;;;18.80;99.90;;;;;;5033650;28;20080;-58
2021/08/29 08:48:39;;;;;;;7.13;3.13;;;18.80;99.90;;;;;;5033436;28;20100;-58
2021/08/29 08:51:08;;;;;;;10.80;3.13;;;18.80;99.90;;;;;;5033403;28;20025;-58
2021/08/29 08:53:36;;;;;;;11.07;3.03;;;18.90;99.90;;;;;;5033516;28;20026;-58
2021/08/29 08:56:02;;;;;;;10.18;3.00;;;18.90;99.90;;;;;;5033426;28;20025;-58
2021/08/29 08:58:29;;;;;;;9.70;3.30;;;18.90;99.90;;;;;;5033383;28;20500;-58
2021/08/29 09:00:55;;;;;;;10.20;3.20;;;18.70;99.90;;;;;;5033198;28;20057;-58
2021/08/29 09:03:21;;;;;;;10.43;3.13;;;18.80;99.90;;;;;;5031868;28;20498;-58
2021/08/29 09:05:47;;;;;;;10.85;3.38;;;18.80;99.90;;;;;;5033196;28;20029;-58
2021/08/29 09:08:13;;;;;;;12.35;3.42;;;18.90;99.90;;;;;;5065031;28;20037;-58
2021/08/29 09:10:38;;;;;;;6.43;2.40;;;19.00;99.90;;;;;;5030822;28;20056;-58
2021/08/29 09:13:06;;;;;;;11.82;3.33;;;19.20;99.90;;;;;;5033101;28;20041;-58
2021/08/29 09:15:32;;;;;;;11.85;3.13;;;19.30;99.90;;;;;;5031709;28;20522;-58
2021/08/29 09:18:00;;;;;;;9.43;3.08;;;19.50;99.90;;;;;;5031505;28;20030;-58
2021/08/29 09:20:36;;;;;;;11.38;2.58;;;19.60;99.90;;;;;;5032204;28;20534;-59
2021/08/29 09:23:05;;;;;;;9.73;3.08;;;19.90;99.90;;;;;;5032658;28;20104;-58
2021/08/29 09:25:33;;;;;;;9.35;2.80;;;19.90;99.90;;;;;;5032046;28;20049;-58
2021/08/29 09:28:00;;;;;;;8.77;3.08;;;20.10;99.90;;;;;;5029737;28;20499;-58
2021/08/29 09:30:28;;;;;;;9.75;3.10;;;20.00;99.90;;;;;;5032075;28;20080;-58
2021/08/29 09:33:00;;;;;;;8.10;2.90;;;20.00;99.90;;;;;;5031792;28;20017;-58
2021/08/29 09:35:31;;;;;;;11.77;3.20;;;20.10;99.90;;;;;;5031439;28;20506;-58
2021/08/29 09:37:58;;;;;;;8.80;2.70;;;20.20;99.90;;;;;;5031158;28;20053;-58
2021/08/29 09:40:28;;;;;;;6.93;2.72;;;20.10;99.90;;;;;;5032365;28;20025;-59
2021/08/29 09:42:55;;;;;;;9.20;3.08;;;20.10;99.90;;;;;;5032465;28;20075;-58
2021/08/29 09:45:27;;;;;;;6.53;2.83;;;19.90;99.90;;;;;;5032305;28;20022;-58
2021/08/29 09:47:56;;;;;;;6.72;2.67;;;20.00;99.90;;;;;;5032706;28;20152;-59
2021/08/29 09:50:23;;;;;;;7.80;2.45;;;20.30;99.90;;;;;;5032337;28;20022;-58
2021/08/29 09:53:19;;;;;;;8.50;2.95;;;20.30;99.90;;;;;;5031251;28;20041;-59
2021/08/29 09:55:47;;;;;;;5.43;2.38;;;20.40;99.90;;;;;;5032205;28;20032;-59
2021/08/29 09:58:22;;;;;;;6.22;2.45;;;20.40;99.90;;;;;;5032156;28;20025;-58
2021/08/29 10:01:13;;;;;;;5.25;2.40;;;20.30;99.90;;;;;;5032071;28;20426;-58
2021/08/29 10:03:50;;;;;;;5.63;2.47;;;20.00;99.90;;;;;;5031691;28;20440;-58
2021/08/29 10:06:25;;;;;;;7.93;2.78;;;19.90;99.90;;;;;;5031459;28;20104;-59
2021/08/29 10:08:57;;;;;;;8.90;2.90;;;19.90;99.90;;;;;;5029777;28;20108;-59
2021/08/29 10:11:24;;;;;;;;;;;19.90;99.90;;;;;;5032369;28;20095;-58
2021/08/29 10:13:50;;;;;;;8.77;2.75;;;19.90;99.90;;;;;;5032220;28;19936;-58
2021/08/29 10:16:17;;;;;;;9.75;3.03;;;19.80;99.90;;;;;;5030610;28;20061;-58
2021/08/29 10:18:46;;;;;;;8.10;2.90;;;19.70;99.90;;;;;;5032059;28;20057;-59
2021/08/29 10:21:14;;;;;;;6.90;2.65;;;19.70;99.90;;;;;;5031698;28;20030;-59
2021/08/29 10:23:43;;;;;;;5.75;2.58;;;19.80;99.90;;;;;;5032042;28;20018;-59
2021/08/29 10:26:10;;;;;;;9.77;2.85;;;19.90;99.90;;;;;;5031949;28;20029;-58
2021/08/29 10:28:45;;;;;;;8.07;2.30;;;19.70;99.90;;;;;;5031790;28;20032;-58
2021/08/29 10:31:17;;;;;;;9.77;2.67;;;19.60;99.90;;;;;;5031914;28;20402;-58
2021/08/29 10:33:47;;;;;;;10.50;2.72;;;19.40;99.90;;;;;;5031941;28;20025;-58
2021/08/29 10:36:17;;;;;;;8.85;2.63;;;19.60;99.90;;;;;;5031575;28;20046;-58
2021/08/29 10:38:45;;;;;;;9.93;3.13;;;19.60;99.90;;;;;;5031856;28;20083;-58
2021/08/29 10:41:11;;;;;;;8.30;3.00;;;19.50;99.90;;;;;;5031603;28;20029;-58
2021/08/29 10:43:39;;;;;;;9.57;3.03;;;19.60;99.90;;;;;;5031726;28;20112;-58
2021/08/29 10:46:09;;;;;;;8.20;2.95;;;19.60;99.90;;;;;;5031830;28;20018;-58
2021/08/29 10:48:40;;;;;;;10.23;2.47;;;19.70;99.90;;;;;;5031693;28;20492;-58
2021/08/29 10:51:08;;;;;;;11.60;2.60;;;19.80;99.90;;;;;;5031807;28;20041;-58
2021/08/29 10:53:36;;;;;;;8.10;2.55;;;19.90;99.90;;;;;;5030402;28;20260;-58
2021/08/29 10:56:16;;;;;;;9.32;3.00;;;20.00;99.90;;;;;;5031415;28;20081;-59
2021/08/29 10:58:44;;;;;;;8.30;2.60;;;20.10;99.90;;;;;;5031709;28;20037;-58
2021/08/29 11:01:38;;;;;;;7.78;2.90;;;20.20;99.90;;;;;;5031251;28;20022;-58
2021/08/29 11:04:19;;;;;;;4.72;2.67;;;20.20;99.90;;;;;;5031514;28;20504;-58
2021/08/29 11:06:45;;;;;;;8.80;2.58;;;20.20;99.90;;;;;;5031342;28;20097;-58
2021/08/29 11:12:19;;;;;;;8.43;2.60;;;20.20;99.90;;;;;;5031346;28;20386;-58
2021/08/29 11:14:53;;;;;;;7.90;2.65;;;20.20;99.90;;;;;;5031535;28;20033;-58
2021/08/29 11:17:22;;;;;;;7.80;3.00;;;20.30;99.90;;;;;;5031506;28;20033;-58
2021/08/29 11:19:50;;;;;;;10.20;2.70;;;20.30;99.90;;;;;;5031451;28;20052;-59
2021/08/29 11:22:22;;;;;;;9.10;2.60;;;20.30;99.90;;;;;;5031179;28;20475;-59
2021/08/29 11:25:10;;;;;;;9.98;2.88;;;20.20;99.90;;;;;;5030139;28;20467;-59
2021/08/29 11:27:39;;;;;;;7.00;2.50;;;20.40;99.90;;;;;;5031318;28;20533;-59
2021/08/29 11:30:05;;;;;;;8.40;2.10;;;20.70;99.90;;;;;;5031204;28;20029;-59
2021/08/29 11:32:31;;;;;;;7.15;2.50;;;21.10;99.90;;;;;;5031179;28;20036;-60
2021/08/29 11:35:23;;;;;;;5.32;2.40;;;21.50;99.90;;;;;;5033777;28;20104;-60
2021/08/29 11:38:10;;;;;;;6.57;2.22;;;21.90;99.90;;;;;;5026440;28;20132;-59
2021/08/29 11:40:47;;;;;;;8.88;2.72;;;22.40;99.90;;;;;;5034846;28;20518;-59
2021/08/29 11:43:26;;;;;;;5.03;2.08;;;22.80;99.90;;;;;;5033471;28;20026;-59
2021/08/29 11:46:14;;;;;;;6.72;2.45;;;22.20;99.90;;;;;;5034853;28;20053;-59
2021/08/29 11:48:52;;;;;;;7.53;2.35;;;21.40;99.90;;;;;;5034725;28;20021;-59
2021/08/29 11:51:35;;;;;;;5.88;2.17;;;20.80;99.90;;;;;;5034516;28;20021;-58
2021/08/29 11:54:03;;;;;;;8.77;2.45;;;20.50;99.90;;;;;;5034764;28;20068;-58
2021/08/29 11:56:30;;;;;;;8.27;2.60;;;20.50;99.90;;;;;;5034369;28;20057;-58
2021/08/29 11:59:01;;;;;;;6.10;2.70;;;20.30;99.90;;;;;;5034411;28;20052;-58
2021/08/29 12:01:28;;;;;;;8.05;2.63;;;20.20;99.90;;;;;;5034280;28;20113;-58
2021/08/29 12:03:57;;;;;;;8.77;2.40;;;20.10;99.90;;;;;;5034595;28;20524;-59
2021/08/29 12:06:31;;;;;;;12.85;2.80;;;20.00;99.90;;;;;;5034149;28;20021;-58
2021/08/29 12:09:20;;;;;;;9.00;2.75;;;19.80;99.90;;;;;;5034391;28;20053;-59
2021/08/29 12:11:47;;;;;;;7.45;2.42;;;19.70;99.90;;;;;;5033150;28;20122;-58
2021/08/29 12:14:18;;;;;;;7.82;2.45;;;19.80;99.90;;;;;;5034294;28;20036;-59
2021/08/29 12:16:51;;;;;;;9.38;2.65;;;19.60;99.90;;;;;;5034179;28;20482;-58
2021/08/29 12:19:24;;;;;;;6.88;2.50;;;19.40;99.90;;;;;;5034101;28;20513;-59
2021/08/29 12:21:50;;;;;;;9.27;3.08;;;19.30;99.90;;;;;;5033974;28;20204;-59
2021/08/29 12:24:24;;;;;;;10.68;3.25;;;19.10;99.90;;;;;;5033984;28;20382;-59
2021/08/29 12:27:08;;;;;;;10.05;2.90;;;18.90;99.90;;;;;;5033988;28;20028;-58
2021/08/29 12:29:55;;;;;;;7.75;2.55;;;19.00;99.90;;;;;;5032651;28;20033;-58
2021/08/29 12:32:20;;;;;;;6.88;2.33;;;19.00;99.90;;;;;;5033756;28;20032;-59
2021/08/29 12:35:04;;;;;;;8.35;2.30;;;19.00;99.90;;;;;;5033763;28;20386;-58
2021/08/29 12:37:32;;;;;;;8.55;2.58;;;19.10;99.90;;;;;;5033771;28;20510;-59
2021/08/29 12:40:06;;;;;;;7.82;2.40;;;19.20;99.90;;;;;;5033786;28;20083;-59
2021/08/29 12:42:37;;;;;;;6.70;2.35;;;19.20;99.90;;;;;;5033543;28;20442;-59
2021/08/29 12:45:06;;;;;;;9.00;2.72;;;19.10;99.90;;;;;;5032312;28;20021;-59
2021/08/29 12:47:32;;;;;;;9.15;2.67;;;19.20;99.90;;;;;;5033523;28;20057;-59
2021/08/29 12:49:58;;;;;;;7.90;3.00;;;19.30;99.90;;;;;;5032109;28;20048;-59